createdAt,value
2022-11-01T00:02:01.128Z,15.39
2022-11-01T00:04:28.856Z,15.35
2022-11-01T00:06:56.721Z,14.98
2022-11-01T00:09:24.676Z,14.94
2022-11-01T00:15:34.217Z,15.02
2022-11-01T00:18:01.969Z,14.85
2022-11-01T00:20:29.728Z,15.12
2022-11-01T00:22:57.466Z,14.90
2022-11-01T00:25:25.169Z,15.18
2022-11-01T00:27:52.862Z,15.11
2022-11-01T00:30:20.644Z,15.31
2022-11-01T00:32:49.766Z,15.13
2022-11-01T00:35:17.542Z,15.48
2022-11-01T00:37:45.262Z,15.66
2022-11-01T00:40:13.477Z,15.26
2022-11-01T00:42:41.229Z,15.14
2022-11-01T00:45:09.490Z,14.78
2022-11-01T00:47:37.243Z,14.86
2022-11-01T00:50:08.854Z,15.12
2022-11-01T00:52:36.552Z,15.39
2022-11-01T00:55:04.481Z,15.31
2022-11-01T00:57:32.289Z,15.01
2022-11-01T01:00:00.064Z,14.88
2022-11-01T01:02:28.047Z,15.35
2022-11-01T01:04:55.839Z,14.95
2022-11-01T01:07:24.941Z,14.79
2022-11-01T01:09:52.707Z,14.93
2022-11-01T01:12:20.468Z,14.73
2022-11-01T01:14:48.215Z,14.53
2022-11-01T01:17:16.027Z,14.62
2022-11-01T01:19:43.733Z,15.02
2022-11-01T01:22:11.658Z,14.79
2022-11-01T01:24:45.464Z,14.92
2022-11-01T01:27:13.412Z,14.94
2022-11-01T01:29:41.950Z,14.62
2022-11-01T01:32:09.933Z,14.62
2022-11-01T01:34:37.714Z,14.67
2022-11-01T01:37:05.480Z,14.66
2022-11-01T01:39:33.252Z,14.73
2022-11-01T01:42:07.544Z,14.68
2022-11-01T01:45:20.214Z,14.61
2022-11-01T01:47:51.584Z,14.70
2022-11-01T01:50:26.114Z,14.54
2022-11-01T01:52:59.333Z,15.07
2022-11-01T01:55:34.115Z,14.50
2022-11-01T01:58:03.568Z,14.66
2022-11-01T02:00:31.313Z,14.61
2022-11-01T02:02:59.280Z,14.58
2022-11-01T02:05:34.905Z,14.58
2022-11-01T02:08:06.841Z,14.67
2022-11-01T02:10:36.484Z,14.54
2022-11-01T02:13:13.028Z,14.82
2022-11-01T02:15:48.338Z,14.50
2022-11-01T02:18:24.567Z,14.68
2022-11-01T02:21:20.198Z,14.64
2022-11-01T02:24:14.163Z,14.88
2022-11-01T02:27:12.679Z,14.63
2022-11-01T02:30:12.930Z,14.41
2022-11-01T02:33:01.775Z,14.59
2022-11-01T02:35:41.561Z,14.96
2022-11-01T02:38:15.107Z,14.49
2022-11-01T02:40:49.508Z,14.55
2022-11-01T02:43:23.251Z,14.54
2022-11-01T02:45:51.910Z,14.49
2022-11-01T02:48:23.654Z,14.68
2022-11-01T02:50:57.632Z,14.64
2022-11-01T02:53:25.960Z,14.41
2022-11-01T02:55:54.027Z,14.82
2022-11-01T02:58:24.845Z,14.56
2022-11-01T03:00:53.015Z,14.64
2022-11-01T03:03:24.733Z,14.67
2022-11-01T03:06:03.750Z,14.80
2022-11-01T03:08:37.663Z,14.58
2022-11-01T03:11:12.014Z,14.64
2022-11-01T03:13:56.402Z,14.43
2022-11-01T03:16:30.876Z,14.61
2022-11-01T03:19:26.719Z,14.78
2022-11-01T03:22:01.883Z,14.70
2022-11-01T03:24:32.577Z,14.86
2022-11-01T03:27:06.251Z,14.81
2022-11-01T03:29:37.608Z,14.54
2022-11-01T03:32:06.657Z,14.94
2022-11-01T03:34:38.569Z,14.43
2022-11-01T03:37:11.226Z,14.89
2022-11-01T03:39:48.155Z,14.62
2022-11-01T03:42:20.115Z,14.68
2022-11-01T03:44:49.950Z,14.41
2022-11-01T03:47:17.965Z,14.52
2022-11-01T03:49:47.071Z,14.63
2022-11-01T03:52:14.931Z,14.69
2022-11-01T03:54:42.765Z,14.48
2022-11-01T03:57:10.611Z,14.56
2022-11-01T03:59:38.538Z,14.46
2022-11-01T04:02:06.459Z,14.53
2022-11-01T04:04:34.333Z,14.55
2022-11-01T04:07:03.485Z,14.46
2022-11-01T04:09:31.226Z,14.50
2022-11-01T04:11:58.983Z,14.74
2022-11-01T04:14:44.226Z,14.72
2022-11-01T04:17:29.623Z,14.82
2022-11-01T04:20:26.441Z,14.50
2022-11-01T04:22:57.585Z,14.71
2022-11-01T04:25:25.347Z,14.44
2022-11-01T04:27:53.077Z,14.58
2022-11-01T04:30:20.810Z,14.40
2022-11-01T04:32:48.543Z,14.63
2022-11-01T04:35:16.481Z,14.56
2022-11-01T04:37:44.274Z,14.89
2022-11-01T04:40:14.840Z,14.68
2022-11-01T04:42:42.697Z,14.56
2022-11-01T04:45:11.227Z,14.69
2022-11-01T04:47:38.922Z,14.80
2022-11-01T04:50:07.195Z,14.64
2022-11-01T04:52:34.913Z,14.92
2022-11-01T04:55:02.656Z,15.07
2022-11-01T04:57:31.735Z,14.71
2022-11-01T04:59:59.545Z,14.67
2022-11-01T05:02:27.272Z,14.94
2022-11-01T05:04:54.968Z,15.21
2022-11-01T05:07:22.747Z,14.78
2022-11-01T05:09:50.499Z,14.97
2022-11-01T05:12:19.228Z,14.94
2022-11-01T05:14:50.790Z,14.93
2022-11-01T05:17:22.012Z,14.95
2022-11-01T05:19:49.815Z,14.99
2022-11-01T05:22:17.583Z,15.17
2022-11-01T05:24:45.652Z,15.07
2022-11-01T05:27:14.539Z,15.06
2022-11-01T05:29:42.214Z,14.77
2022-11-01T05:32:12.471Z,15.13
2022-11-01T05:34:40.231Z,14.71
2022-11-01T05:37:08.147Z,14.79
2022-11-01T05:39:35.837Z,14.76
2022-11-01T05:42:03.573Z,14.97
2022-11-01T05:44:31.267Z,15.06
2022-11-01T05:46:58.998Z,14.89
2022-11-01T05:49:28.070Z,15.11
2022-11-01T05:51:55.808Z,15.15
2022-11-01T05:54:26.202Z,14.85
2022-11-01T05:56:53.966Z,15.03
2022-11-01T05:59:21.660Z,14.96
2022-11-01T06:01:49.542Z,14.95
2022-11-01T06:04:17.446Z,14.89
2022-11-01T06:06:46.538Z,15.08
2022-11-01T06:09:14.330Z,14.93
2022-11-01T06:11:42.119Z,14.98
2022-11-01T06:14:11.907Z,14.93
2022-11-01T06:16:39.626Z,15.08
2022-11-01T06:19:07.408Z,15.45
2022-11-01T06:21:35.197Z,15.25
2022-11-01T06:24:04.426Z,14.92
2022-11-01T06:26:34.321Z,15.21
2022-11-01T06:29:03.091Z,15.36
2022-11-01T06:31:30.839Z,15.16
2022-11-01T06:33:58.747Z,15.41
2022-11-01T06:36:26.486Z,15.17
2022-11-01T06:38:54.188Z,15.62
2022-11-01T06:41:23.388Z,15.16
2022-11-01T06:43:51.046Z,15.47
2022-11-01T06:46:18.713Z,15.35
2022-11-01T06:48:49.026Z,15.32
2022-11-01T06:51:16.734Z,15.47
2022-11-01T06:53:44.629Z,15.16
2022-11-01T06:56:12.425Z,15.27
2022-11-01T06:58:41.582Z,15.23
2022-11-01T07:01:09.428Z,15.39
2022-11-01T07:03:37.321Z,15.27
2022-11-01T07:06:05.413Z,15.33
2022-11-01T07:08:33.197Z,15.63
2022-11-01T07:11:00.990Z,15.53
2022-11-01T07:13:33.767Z,15.79
2022-11-01T07:16:04.176Z,15.52
2022-11-01T07:18:32.238Z,15.68
2022-11-01T07:21:03.056Z,15.68
2022-11-01T07:23:31.139Z,15.64
2022-11-01T07:25:58.961Z,15.88
2022-11-01T07:28:26.710Z,15.67
2022-11-01T07:30:55.844Z,15.71
2022-11-01T07:33:24.882Z,15.84
2022-11-01T07:35:52.609Z,15.69
2022-11-01T07:38:23.363Z,15.81
2022-11-01T07:40:53.228Z,15.94
2022-11-01T07:43:23.888Z,15.94
2022-11-01T07:45:51.619Z,15.71
2022-11-01T07:48:21.210Z,16.16
2022-11-01T07:50:50.465Z,16.13
2022-11-01T07:53:23.021Z,16.11
2022-11-01T07:55:53.377Z,16.16
2022-11-01T07:58:21.192Z,16.42
2022-11-01T08:00:51.062Z,16.37
2022-11-01T08:03:21.430Z,16.59
2022-11-01T08:05:50.507Z,16.01
2022-11-01T08:08:18.839Z,16.20
2022-11-01T08:10:48.622Z,16.28
2022-11-01T08:13:19.064Z,16.01
2022-11-01T08:15:47.396Z,16.53
2022-11-01T08:18:15.526Z,16.45
2022-11-01T08:20:43.586Z,16.81
2022-11-01T08:23:15.626Z,16.69
2022-11-01T08:25:45.142Z,16.57
2022-11-01T08:28:14.825Z,16.74
2022-11-01T08:30:43.640Z,16.72
2022-11-01T08:33:11.596Z,17.01
2022-11-01T08:35:39.975Z,17.09
2022-11-01T08:38:07.731Z,16.94
2022-11-01T08:40:37.164Z,17.63
2022-11-01T08:43:05.268Z,16.71
2022-11-01T08:45:34.066Z,17.66
2022-11-01T08:48:05.166Z,17.00
2022-11-01T08:50:35.349Z,17.09
2022-11-01T08:53:06.678Z,17.29
2022-11-01T08:55:37.832Z,16.93
2022-11-01T08:58:07.222Z,16.89
2022-11-01T09:00:36.389Z,17.28
2022-11-01T09:03:05.174Z,17.17
2022-11-01T09:05:36.195Z,17.00
2022-11-01T09:08:04.581Z,16.69
2022-11-01T09:14:29.853Z,16.74
2022-11-01T09:16:57.960Z,16.52
2022-11-01T09:19:25.811Z,16.95
2022-11-01T09:21:53.989Z,17.13
2022-11-01T09:24:22.190Z,16.73
2022-11-01T09:26:50.589Z,16.74
2022-11-01T09:29:21.211Z,16.39
2022-11-01T09:31:53.383Z,17.05
2022-11-01T09:34:23.163Z,16.74
2022-11-01T09:36:51.415Z,16.80
2022-11-01T09:39:22.258Z,16.67
2022-11-01T09:41:52.783Z,17.19
2022-11-01T09:44:24.701Z,17.24
2022-11-01T09:47:01.435Z,17.22
2022-11-01T09:49:34.641Z,17.37
2022-11-01T09:52:02.604Z,17.46
2022-11-01T09:54:30.383Z,17.89
2022-11-01T09:57:15.680Z,17.07
2022-11-01T09:59:49.832Z,17.77
2022-11-01T10:02:48.751Z,18.13
2022-11-01T10:05:32.932Z,18.05
2022-11-01T10:08:10.756Z,17.96
2022-11-01T10:10:42.844Z,17.87
2022-11-01T10:13:25.791Z,17.58
2022-11-01T10:16:02.719Z,18.10
2022-11-01T10:18:34.543Z,17.45
2022-11-01T10:21:06.309Z,17.72
2022-11-01T10:23:45.147Z,17.76
2022-11-01T10:26:17.410Z,17.66
2022-11-01T10:28:53.231Z,17.79
2022-11-01T10:31:24.689Z,17.80
2022-11-01T10:34:00.006Z,17.81
2022-11-01T10:36:31.643Z,17.90
2022-11-01T10:39:48.702Z,18.13
2022-11-01T10:41:55.545Z,17.73
2022-11-01T10:44:28.173Z,18.33
2022-11-01T10:46:57.913Z,18.54
2022-11-01T10:50:00.177Z,18.48
2022-11-01T10:52:23.723Z,18.72
2022-11-01T10:54:53.717Z,18.72
2022-11-01T10:57:31.769Z,18.76
2022-11-01T11:00:04.202Z,19.27
2022-11-01T11:02:36.899Z,18.85
2022-11-01T11:05:06.653Z,19.06
2022-11-01T11:07:34.870Z,18.90
2022-11-01T11:10:03.784Z,18.76
2022-11-01T11:12:32.341Z,18.70
2022-11-01T11:15:04.916Z,18.76
2022-11-01T11:17:39.579Z,18.52
2022-11-01T11:20:11.686Z,18.79
2022-11-01T11:22:41.597Z,18.47
2022-11-01T11:25:16.610Z,19.15
2022-11-01T11:27:47.468Z,18.51
2022-11-01T11:30:28.341Z,18.42
2022-11-01T11:32:58.637Z,18.76
2022-11-01T11:35:29.367Z,18.76
2022-11-01T11:37:59.919Z,18.85
2022-11-01T11:40:29.570Z,18.88
2022-11-01T11:43:24.212Z,19.05
2022-11-01T11:46:04.788Z,18.65
2022-11-01T11:48:32.642Z,18.92
2022-11-01T11:51:04.940Z,19.79
2022-11-01T11:53:33.413Z,20.27
2022-11-01T11:56:03.001Z,20.50
2022-11-01T11:58:37.077Z,20.53
2022-11-01T12:01:10.443Z,20.42
2022-11-01T12:03:47.071Z,20.69
2022-11-01T12:06:21.181Z,20.38
2022-11-01T12:08:50.951Z,19.54
2022-11-01T12:11:19.238Z,20.44
2022-11-01T12:14:00.510Z,20.16
2022-11-01T12:19:02.803Z,20.03
2022-11-01T12:21:36.643Z,19.80
2022-11-01T12:24:14.004Z,19.65
2022-11-01T12:26:44.523Z,19.74
2022-11-01T12:29:19.286Z,19.94
2022-11-01T12:31:49.356Z,19.55
2022-11-01T12:34:22.634Z,18.89
2022-11-01T12:36:55.243Z,19.33
2022-11-01T12:39:40.239Z,19.10
2022-11-01T12:42:13.385Z,19.26
2022-11-01T12:44:43.705Z,19.19
2022-11-01T12:47:19.568Z,19.37
2022-11-01T12:49:56.840Z,19.41
2022-11-01T12:52:32.547Z,19.15
2022-11-01T12:55:06.811Z,19.53
2022-11-01T12:57:35.383Z,19.48
2022-11-01T13:00:05.534Z,20.08
2022-11-01T13:02:56.169Z,21.49
2022-11-01T13:05:32.708Z,22.45
2022-11-01T13:08:11.042Z,23.61
2022-11-01T13:10:43.938Z,22.84
2022-11-01T13:13:21.131Z,23.19
2022-11-01T13:16:00.473Z,23.84
2022-11-01T13:18:38.893Z,24.46
2022-11-01T13:21:13.062Z,23.51
2022-11-01T13:23:49.004Z,23.85
2022-11-01T13:26:23.649Z,22.60
2022-11-01T13:29:00.706Z,21.54
2022-11-01T13:31:37.422Z,20.96
2022-11-01T13:34:23.902Z,20.57
2022-11-01T13:37:01.030Z,20.55
2022-11-01T13:39:39.820Z,20.03
2022-11-01T13:42:12.596Z,20.04
2022-11-01T13:44:46.677Z,20.24
2022-11-01T13:47:31.470Z,20.41
2022-11-01T13:50:31.477Z,20.31
2022-11-01T13:53:05.888Z,20.02
2022-11-01T13:55:42.390Z,20.21
2022-11-01T13:58:18.197Z,20.10
2022-11-01T14:00:49.084Z,19.85
2022-11-01T14:03:26.582Z,19.68
2022-11-01T14:06:27.422Z,20.07
2022-11-01T14:09:28.558Z,20.71
2022-11-01T14:11:59.290Z,20.81
2022-11-01T14:14:54.740Z,20.86
2022-11-01T14:17:55.873Z,20.52
2022-11-01T14:20:50.607Z,20.89
2022-11-01T14:23:54.278Z,21.35
2022-11-01T14:26:26.582Z,21.26
2022-11-01T14:28:59.628Z,21.42
2022-11-01T14:31:33.736Z,21.54
2022-11-01T14:34:03.097Z,21.21
2022-11-01T14:36:35.731Z,19.75
2022-11-01T14:39:10.133Z,19.74
2022-11-01T14:41:41.020Z,19.86
2022-11-01T14:44:18.468Z,19.54
2022-11-01T14:46:50.124Z,19.65
2022-11-01T14:49:33.312Z,20.30
2022-11-01T14:52:07.883Z,20.11
2022-11-01T14:54:43.304Z,19.90
2022-11-01T14:57:21.748Z,19.92
2022-11-01T14:59:51.955Z,20.16
2022-11-01T15:02:20.078Z,20.13
2022-11-01T15:04:50.236Z,20.30
2022-11-01T15:07:27.675Z,19.58
2022-11-01T15:10:00.465Z,19.59
2022-11-01T15:12:30.655Z,19.53
2022-11-01T15:15:01.083Z,18.99
2022-11-01T15:17:32.653Z,18.99
2022-11-01T15:20:02.541Z,18.91
2022-11-01T15:22:34.232Z,18.99
2022-11-01T15:25:04.615Z,18.70
2022-11-01T15:27:38.736Z,18.80
2022-11-01T15:30:19.737Z,18.36
2022-11-01T15:32:52.975Z,18.11
2022-11-01T15:35:25.334Z,18.07
2022-11-01T15:37:54.571Z,17.69
2022-11-01T15:40:28.990Z,17.63
2022-11-01T15:42:58.193Z,17.91
2022-11-01T15:45:30.976Z,17.62
2022-11-01T15:48:01.484Z,17.58
2022-11-01T15:50:35.497Z,17.46
2022-11-01T15:53:05.364Z,17.49
2022-11-01T15:55:36.289Z,17.23
2022-11-01T15:58:07.605Z,17.57
2022-11-01T16:00:42.336Z,17.48
2022-11-01T16:03:17.130Z,17.38
2022-11-01T16:05:52.961Z,17.25
2022-11-01T16:08:27.015Z,17.11
2022-11-01T16:10:55.038Z,17.30
2022-11-01T16:13:22.890Z,17.00
2022-11-01T16:16:03.144Z,17.10
2022-11-01T16:18:38.117Z,16.87
2022-11-01T16:21:11.118Z,16.74
2022-11-01T16:23:39.081Z,16.99
2022-11-01T16:26:09.028Z,17.04
2022-11-01T16:28:43.117Z,16.91
2022-11-01T16:31:25.476Z,16.82
2022-11-01T16:34:00.139Z,16.80
2022-11-01T16:36:38.104Z,16.80
2022-11-01T16:39:31.335Z,16.93
2022-11-01T16:42:02.049Z,16.79
2022-11-01T16:44:35.070Z,16.68
2022-11-01T16:47:04.567Z,16.68
2022-11-01T16:49:32.667Z,16.57
2022-11-01T16:52:00.578Z,16.61
2022-11-01T16:54:34.901Z,16.48
2022-11-01T16:57:05.713Z,16.54
2022-11-01T16:59:39.352Z,16.65
2022-11-01T17:02:22.182Z,16.32
2022-11-01T17:04:53.894Z,16.37
2022-11-01T17:07:22.372Z,16.38
2022-11-01T17:09:50.675Z,16.13
2022-11-01T17:12:18.511Z,16.34
2022-11-01T17:14:46.442Z,16.40
2022-11-01T17:17:19.109Z,16.39
2022-11-01T17:19:50.241Z,16.44
2022-11-01T17:22:21.700Z,16.37
2022-11-01T17:24:49.558Z,16.56
2022-11-01T17:27:18.603Z,16.20
2022-11-01T17:29:46.561Z,16.20
2022-11-01T17:32:15.664Z,16.14
2022-11-01T17:34:43.384Z,16.18
2022-11-01T17:37:17.042Z,16.27
2022-11-01T17:39:45.014Z,16.10
2022-11-01T17:42:12.749Z,15.97
2022-11-01T17:44:40.420Z,16.08
2022-11-01T17:47:09.944Z,16.14
2022-11-01T17:49:41.080Z,16.18
2022-11-01T17:52:08.802Z,15.99
2022-11-01T17:54:36.616Z,15.91
2022-11-01T17:57:07.688Z,15.79
2022-11-01T17:59:35.397Z,15.77
2022-11-01T18:02:03.384Z,15.80
2022-11-01T18:04:35.606Z,15.98
2022-11-01T18:07:07.719Z,15.64
2022-11-01T18:09:35.664Z,15.76
2022-11-01T18:12:10.262Z,15.90
2022-11-01T18:17:35.297Z,15.80
2022-11-01T18:20:14.041Z,15.62
2022-11-01T18:22:51.379Z,15.81
2022-11-01T18:25:28.648Z,15.59
2022-11-01T18:28:00.207Z,15.50
2022-11-01T18:30:28.870Z,15.48
2022-11-01T18:33:02.982Z,15.61
2022-11-01T18:35:35.942Z,15.20
2022-11-01T18:38:18.735Z,15.32
2022-11-01T18:40:57.424Z,15.25
2022-11-01T18:43:26.812Z,15.35
2022-11-01T18:46:23.216Z,15.55
2022-11-01T18:48:42.934Z,15.27
2022-11-01T18:51:16.212Z,15.25
2022-11-01T18:53:45.405Z,15.24
2022-11-01T18:56:21.246Z,15.38
2022-11-01T18:58:50.338Z,15.21
2022-11-01T19:01:19.924Z,14.90
2022-11-01T19:03:55.852Z,14.74
2022-11-01T19:06:24.166Z,14.59
2022-11-01T19:08:56.010Z,14.99
2022-11-01T19:11:24.129Z,14.69
2022-11-01T19:13:52.169Z,14.74
2022-11-01T19:16:23.330Z,14.81
2022-11-01T19:18:53.756Z,14.87
2022-11-01T19:21:23.582Z,14.81
2022-11-01T19:23:57.804Z,14.87
2022-11-01T19:26:29.403Z,14.57
2022-11-01T19:28:58.523Z,14.45
2022-11-01T19:31:32.204Z,14.37
2022-11-01T19:34:03.533Z,14.11
2022-11-01T19:36:40.860Z,14.03
2022-11-01T19:39:22.553Z,14.16
2022-11-01T19:41:51.180Z,14.32
2022-11-01T19:44:21.279Z,14.00
2022-11-01T19:46:52.196Z,13.98
2022-11-01T19:49:24.785Z,13.75
2022-11-01T19:52:17.397Z,13.82
2022-11-01T19:54:53.091Z,13.94
2022-11-01T19:57:31.315Z,13.72
2022-11-01T20:00:13.731Z,13.53
2022-11-01T20:02:41.776Z,13.58
2022-11-01T20:05:25.177Z,13.51
2022-11-01T20:07:53.412Z,13.27
2022-11-01T20:10:22.945Z,13.39
2022-11-01T20:12:50.648Z,13.11
2022-11-01T20:15:18.402Z,12.97
2022-11-01T20:17:46.099Z,13.22
2022-11-01T20:20:14.520Z,13.11
2022-11-01T20:22:44.035Z,13.06
2022-11-01T20:25:14.964Z,12.92
2022-11-01T20:27:44.160Z,12.80
2022-11-01T20:30:12.778Z,12.75
2022-11-01T20:32:40.502Z,12.78
2022-11-01T20:35:11.300Z,12.91
2022-11-01T20:37:39.058Z,12.64
2022-11-01T20:40:08.379Z,12.78
2022-11-01T20:42:36.123Z,12.78
2022-11-01T20:45:08.340Z,12.80
2022-11-01T20:47:46.253Z,12.52
2022-11-01T20:50:17.171Z,12.50
2022-11-01T20:52:45.309Z,12.80
2022-11-01T20:55:14.055Z,12.54
2022-11-01T20:57:44.445Z,12.50
2022-11-01T21:00:15.810Z,12.69
2022-11-01T21:02:44.368Z,12.86
2022-11-01T21:05:21.235Z,12.94
2022-11-01T21:07:49.186Z,12.81
2022-11-01T21:10:32.686Z,12.63
2022-11-01T21:13:02.246Z,12.76
2022-11-01T21:15:37.096Z,12.69
2022-11-01T21:18:32.256Z,12.41
2022-11-01T21:21:02.672Z,12.09
2022-11-01T21:23:35.761Z,12.36
2022-11-01T21:26:11.673Z,12.36
2022-11-01T21:28:44.128Z,12.34
2022-11-01T21:31:26.834Z,12.41
2022-11-01T21:33:56.537Z,12.27
2022-11-01T21:36:33.580Z,12.55
2022-11-01T21:39:03.424Z,12.52
2022-11-01T21:41:41.707Z,12.87
2022-11-01T21:44:25.594Z,13.10
2022-11-01T21:46:58.369Z,12.87
2022-11-01T21:49:29.235Z,13.03
2022-11-01T21:52:00.333Z,12.76
2022-11-01T21:54:29.554Z,12.84
2022-11-01T21:56:58.449Z,12.32
2022-11-01T21:59:27.157Z,12.68
2022-11-01T22:01:58.091Z,12.39
2022-11-01T22:04:28.637Z,12.40
2022-11-01T22:06:57.130Z,12.45
2022-11-01T22:09:25.504Z,12.27
2022-11-01T22:11:53.731Z,12.15
2022-11-01T22:14:21.472Z,12.22
2022-11-01T22:16:52.416Z,11.86
2022-11-01T22:19:21.578Z,11.95
2022-11-01T22:21:49.305Z,12.20
2022-11-01T22:24:17.075Z,11.69
2022-11-01T22:26:46.935Z,11.84
2022-11-01T22:29:14.682Z,11.73
2022-11-01T22:31:42.410Z,11.79
2022-11-01T22:34:10.132Z,11.83
2022-11-01T22:36:41.508Z,11.79
2022-11-01T22:39:15.063Z,11.76
2022-11-01T22:41:43.063Z,11.90
2022-11-01T22:44:15.320Z,11.49
2022-11-01T22:46:52.342Z,11.66
2022-11-01T22:49:25.071Z,11.81
2022-11-01T22:51:58.506Z,11.45
2022-11-01T22:54:31.346Z,11.52
2022-11-01T22:57:02.668Z,11.39
2022-11-01T22:59:33.684Z,11.41
2022-11-01T23:02:24.881Z,11.41
2022-11-01T23:04:58.917Z,11.52
2022-11-01T23:07:34.200Z,11.74
2022-11-01T23:10:10.669Z,11.93
2022-11-01T23:12:56.013Z,11.86
2022-11-01T23:15:28.551Z,12.08
2022-11-01T23:18:02.841Z,12.02
2022-11-01T23:20:30.831Z,11.88
2022-11-01T23:23:00.828Z,12.01
2022-11-01T23:25:30.267Z,12.15
2022-11-01T23:27:58.017Z,12.05
2022-11-01T23:30:26.367Z,12.01
2022-11-01T23:32:54.165Z,12.07
2022-11-01T23:35:23.131Z,11.98
2022-11-01T23:37:52.322Z,12.02
2022-11-01T23:40:23.016Z,12.26
2022-11-01T23:42:51.557Z,12.48
2022-11-01T23:45:27.638Z,12.45
2022-11-01T23:47:55.574Z,12.25
2022-11-01T23:50:28.670Z,12.50
2022-11-01T23:52:58.275Z,12.58
2022-11-01T23:55:30.784Z,12.46
2022-11-01T23:58:00.990Z,12.12
